createdAt,value
2018-05-04T00:01:23.673Z,1.47
2018-05-04T00:03:57.551Z,1.83
2018-05-04T00:06:31.439Z,1.70
2018-05-04T00:09:05.285Z,1.70
2018-05-04T00:11:39.152Z,1.57
2018-05-04T00:14:12.988Z,1.67
2018-05-04T00:16:46.864Z,1.53
2018-05-04T00:19:20.729Z,1.53
2018-05-04T00:21:55.463Z,1.50
2018-05-04T00:24:29.386Z,1.63
2018-05-04T00:27:04.771Z,1.83
2018-05-04T00:29:39.456Z,1.50
2018-05-04T00:32:13.520Z,1.60
2018-05-04T00:34:47.359Z,1.70
2018-05-04T00:37:22.000Z,1.40
2018-05-04T00:39:56.134Z,1.73
2018-05-04T00:42:30.111Z,1.67
2018-05-04T00:45:04.084Z,1.23
2018-05-04T00:47:38.046Z,1.60
2018-05-04T00:50:11.867Z,1.70
2018-05-04T00:52:45.813Z,1.70
2018-05-04T00:55:19.752Z,1.20
2018-05-04T00:57:54.195Z,1.43
2018-05-04T01:00:28.125Z,1.43
2018-05-04T01:03:03.033Z,1.40
2018-05-04T01:05:37.732Z,1.70
2018-05-04T01:08:11.621Z,1.80
2018-05-04T01:10:45.399Z,1.93
2018-05-04T01:13:19.377Z,1.30
2018-05-04T01:15:53.376Z,1.63
2018-05-04T01:18:27.209Z,1.83
2018-05-04T01:21:01.098Z,1.43
2018-05-04T01:23:35.761Z,1.50
2018-05-04T01:26:09.848Z,1.33
2018-05-04T01:28:43.691Z,1.57
2018-05-04T01:31:18.399Z,1.30
2018-05-04T01:33:52.389Z,1.60
2018-05-04T01:36:26.236Z,1.40
2018-05-04T01:39:00.996Z,1.50
2018-05-04T01:41:35.069Z,2.00
2018-05-04T01:44:08.960Z,1.60
2018-05-04T01:46:42.843Z,1.57
2018-05-04T01:49:16.612Z,1.40
2018-05-04T01:51:51.507Z,1.50
2018-05-04T01:54:25.620Z,1.80
2018-05-04T01:57:00.342Z,1.87
2018-05-04T01:59:34.324Z,1.23
2018-05-04T02:02:08.140Z,1.60
2018-05-04T02:04:42.120Z,1.60
2018-05-04T02:07:16.784Z,1.53
2018-05-04T02:09:50.727Z,1.77
2018-05-04T02:12:24.455Z,1.73
2018-05-04T02:14:58.220Z,1.70
2018-05-04T02:17:32.248Z,1.50
2018-05-04T02:20:06.246Z,1.60
2018-05-04T02:22:40.885Z,1.90
2018-05-04T02:25:15.010Z,1.57
2018-05-04T02:27:48.996Z,1.80
2018-05-04T02:30:22.816Z,1.60
2018-05-04T02:32:56.713Z,1.60
2018-05-04T02:35:31.339Z,1.30
2018-05-04T02:38:05.402Z,1.43
2018-05-04T02:40:39.310Z,1.50
2018-05-04T02:43:13.375Z,1.60
2018-05-04T02:45:47.413Z,1.70
2018-05-04T02:48:22.216Z,1.40
2018-05-04T02:50:56.904Z,1.30
2018-05-04T02:53:31.758Z,1.67
2018-05-04T02:56:05.528Z,1.37
2018-05-04T02:58:39.549Z,1.70
2018-05-04T03:01:14.316Z,1.47
2018-05-04T03:03:48.311Z,1.53
2018-05-04T03:06:22.116Z,1.63
2018-05-04T03:08:56.732Z,1.60
2018-05-04T03:11:30.726Z,1.43
2018-05-04T03:14:04.444Z,1.60
2018-05-04T03:16:38.372Z,1.43
2018-05-04T03:19:12.722Z,1.60
2018-05-04T03:21:46.595Z,1.87
2018-05-04T03:24:20.288Z,1.50
2018-05-04T03:26:54.109Z,1.30
2018-05-04T03:29:28.785Z,1.57
2018-05-04T03:32:02.824Z,1.80
2018-05-04T03:34:36.857Z,1.43
2018-05-04T03:37:10.892Z,1.70
2018-05-04T03:39:44.940Z,1.70
2018-05-04T03:42:18.816Z,1.23
2018-05-04T03:44:53.458Z,1.60
2018-05-04T03:47:27.451Z,1.80
2018-05-04T03:50:02.053Z,1.37
2018-05-04T03:52:36.171Z,1.50
2018-05-04T03:55:10.925Z,1.30
2018-05-04T03:57:56.834Z,1.43
2018-05-04T04:00:42.774Z,1.47
2018-05-04T04:03:29.566Z,1.73
2018-05-04T04:06:03.410Z,1.60
2018-05-04T04:08:38.223Z,1.67
2018-05-04T04:11:11.988Z,1.53
2018-05-04T04:13:45.962Z,1.50
2018-05-04T04:16:19.871Z,1.50
2018-05-04T04:18:54.500Z,1.60
2018-05-04T04:21:28.560Z,1.83
2018-05-04T04:24:02.519Z,1.37
2018-05-04T04:26:36.530Z,1.30
2018-05-04T04:29:10.491Z,1.60
2018-05-04T04:31:45.279Z,1.43
2018-05-04T04:34:19.230Z,1.80
2018-05-04T04:36:53.323Z,1.60
2018-05-04T04:39:27.150Z,1.70
2018-05-04T04:42:01.608Z,1.40
2018-05-04T04:44:35.837Z,1.43
2018-05-04T04:47:09.654Z,1.37
2018-05-04T04:49:44.305Z,1.80
2018-05-04T04:52:18.998Z,1.40
2018-05-04T04:54:53.178Z,1.70
2018-05-04T04:57:27.695Z,1.33
2018-05-04T05:00:02.179Z,1.70
2018-05-04T05:02:37.049Z,1.37
2018-05-04T05:05:11.543Z,1.60
2018-05-04T05:07:45.373Z,1.70
2018-05-04T05:10:19.771Z,1.93
2018-05-04T05:12:54.699Z,1.50
2018-05-04T05:15:28.914Z,1.70
2018-05-04T05:18:02.615Z,1.77
2018-05-04T05:20:36.423Z,1.60
2018-05-04T05:23:10.362Z,1.90
2018-05-04T05:25:45.116Z,1.77
2018-05-04T05:28:19.090Z,2.17
2018-05-04T05:30:52.963Z,1.40
2018-05-04T05:33:26.937Z,1.87
2018-05-04T05:36:01.079Z,2.03
2018-05-04T05:38:35.009Z,1.90
2018-05-04T05:41:09.788Z,2.40
2018-05-04T05:43:43.804Z,1.60
2018-05-04T05:46:17.909Z,2.20
2018-05-04T05:48:52.549Z,1.97
2018-05-04T05:51:26.844Z,2.07
2018-05-04T05:54:00.798Z,1.87
2018-05-04T05:56:35.872Z,2.33
2018-05-04T05:59:09.876Z,2.00
2018-05-04T06:01:43.954Z,1.73
2018-05-04T06:04:17.993Z,2.13
2018-05-04T06:06:52.000Z,2.10
2018-05-04T06:09:25.805Z,2.50
2018-05-04T06:12:00.481Z,2.10
2018-05-04T06:14:34.482Z,2.20
2018-05-04T06:17:08.497Z,2.10
2018-05-04T06:19:42.531Z,2.00
2018-05-04T06:22:17.413Z,1.80
2018-05-04T06:24:52.143Z,2.10
2018-05-04T06:27:26.087Z,2.27
2018-05-04T06:30:00.023Z,2.47
2018-05-04T06:32:33.932Z,1.87
2018-05-04T06:35:08.019Z,1.83
2018-05-04T06:37:41.942Z,2.00
2018-05-04T06:40:15.842Z,2.07
2018-05-04T06:42:49.809Z,2.50
2018-05-04T06:45:18.153Z,2.07
2018-05-04T06:47:46.423Z,2.50
2018-05-04T06:50:15.609Z,2.60
2018-05-04T06:52:43.800Z,2.60
2018-05-04T06:55:12.004Z,2.10
2018-05-04T06:57:40.279Z,2.40
2018-05-04T07:00:09.279Z,2.50
2018-05-04T07:02:37.621Z,2.50
2018-05-04T07:05:06.675Z,2.17
2018-05-04T07:07:35.717Z,2.30
2018-05-04T07:10:04.040Z,2.53
2018-05-04T07:12:32.231Z,2.47
2018-05-04T07:15:00.456Z,2.50
2018-05-04T07:17:28.855Z,2.27
2018-05-04T07:19:57.168Z,2.20
2018-05-04T07:22:25.385Z,2.00
2018-05-04T07:24:53.625Z,2.20
2018-05-04T07:27:22.778Z,2.13
2018-05-04T07:29:51.023Z,2.10
2018-05-04T07:32:19.329Z,2.03
2018-05-04T07:34:47.519Z,1.80
2018-05-04T07:37:15.786Z,2.60
2018-05-04T07:39:44.154Z,2.00
2018-05-04T07:42:12.324Z,2.30
2018-05-04T07:44:40.612Z,2.20
2018-05-04T07:47:08.831Z,2.13
2018-05-04T07:49:37.063Z,2.17
2018-05-04T07:52:05.325Z,1.83
2018-05-04T07:54:33.584Z,2.00
2018-05-04T07:57:01.761Z,1.60
2018-05-04T07:59:29.965Z,1.90
2018-05-04T08:01:58.209Z,1.73
2018-05-04T08:04:26.450Z,1.73
2018-05-04T08:06:54.766Z,1.73
2018-05-04T08:09:22.968Z,1.97
2018-05-04T08:11:51.715Z,1.77
2018-05-04T08:14:20.039Z,1.43
2018-05-04T08:16:48.981Z,1.40
2018-05-04T08:19:17.242Z,1.60
2018-05-04T08:21:45.517Z,1.80
2018-05-04T08:24:13.765Z,1.50
2018-05-04T08:26:42.045Z,1.27
2018-05-04T08:29:10.267Z,1.60
2018-05-04T08:31:38.550Z,1.37
2018-05-04T08:34:06.969Z,1.40
2018-05-04T08:36:35.996Z,1.40
2018-05-04T08:39:04.269Z,1.40
2018-05-04T08:41:32.475Z,2.03
2018-05-04T08:44:00.680Z,2.87
2018-05-04T08:46:29.115Z,2.30
2018-05-04T08:48:57.644Z,2.03
2018-05-04T08:51:26.796Z,2.33
2018-05-04T08:53:55.178Z,2.73
2018-05-04T08:56:23.474Z,3.23
2018-05-04T08:58:51.734Z,2.43
2018-05-04T09:01:20.023Z,2.53
2018-05-04T09:03:48.310Z,1.87
2018-05-04T09:06:17.429Z,1.43
2018-05-04T09:11:19.622Z,2.00
2018-05-04T09:13:48.250Z,2.20
2018-05-04T09:16:16.497Z,2.47
2018-05-04T09:18:44.891Z,2.00
2018-05-04T09:21:13.286Z,1.77
2018-05-04T09:23:41.724Z,2.20
2018-05-04T09:26:09.936Z,1.60
2018-05-04T09:28:38.967Z,1.83
2018-05-04T09:31:07.288Z,1.60
2018-05-04T09:33:35.461Z,1.37
2018-05-04T09:36:03.820Z,1.33
2018-05-04T09:38:32.040Z,1.03
2018-05-04T09:41:01.846Z,1.20
2018-05-04T09:43:31.004Z,1.07
2018-05-04T09:45:59.208Z,0.93
2018-05-04T09:48:28.479Z,1.20
2018-05-04T09:50:56.739Z,1.20
2018-05-04T09:53:25.117Z,1.20
2018-05-04T09:55:53.430Z,1.30
2018-05-04T09:58:22.323Z,1.20
2018-05-04T10:00:51.324Z,1.10
2018-05-04T10:03:20.416Z,0.87
2018-05-04T10:05:49.965Z,1.20
2018-05-04T10:08:34.140Z,1.10
2018-05-04T10:11:02.354Z,0.83
2018-05-04T10:13:31.393Z,1.27
2018-05-04T10:15:59.702Z,1.13
2018-05-04T10:18:28.633Z,1.07
2018-05-04T10:20:56.917Z,0.90
2018-05-04T10:23:25.103Z,1.17
2018-05-04T10:25:53.358Z,0.90
2018-05-04T10:28:21.680Z,1.00
2018-05-04T10:30:49.971Z,1.00
2018-05-04T10:33:18.276Z,0.77
2018-05-04T10:35:47.296Z,0.53
2018-05-04T10:38:15.688Z,0.80
2018-05-04T10:40:43.888Z,0.80
2018-05-04T10:43:12.875Z,1.13
2018-05-04T10:45:41.132Z,0.90
2018-05-04T10:48:09.308Z,0.90
2018-05-04T10:50:37.621Z,0.80
2018-05-04T10:53:05.848Z,0.77
2018-05-04T10:55:34.046Z,0.90
2018-05-04T10:58:02.248Z,0.60
2018-05-04T11:00:31.571Z,1.13
2018-05-04T11:03:00.645Z,1.13
2018-05-04T11:05:28.924Z,0.90
2018-05-04T11:07:57.094Z,0.80
2018-05-04T11:10:25.265Z,0.60
2018-05-04T11:12:53.498Z,0.70
2018-05-04T11:15:21.716Z,1.03
2018-05-04T11:17:49.902Z,0.80
2018-05-04T11:20:18.440Z,0.90
2018-05-04T11:22:48.036Z,1.00
2018-05-04T11:25:17.105Z,0.70
2018-05-04T11:27:45.316Z,0.90
2018-05-04T11:30:14.298Z,0.90
2018-05-04T11:32:43.277Z,0.87
2018-05-04T11:35:11.436Z,0.77
2018-05-04T11:37:39.669Z,1.13
2018-05-04T11:40:07.867Z,0.70
2018-05-04T11:42:36.094Z,0.57
2018-05-04T11:45:04.368Z,0.93
2018-05-04T11:47:33.320Z,0.70
2018-05-04T11:50:01.514Z,1.03
2018-05-04T11:52:29.791Z,0.60
2018-05-04T11:54:58.009Z,1.33
2018-05-04T11:57:26.232Z,1.17
2018-05-04T11:59:55.399Z,1.30
2018-05-04T12:02:23.638Z,1.73
2018-05-04T12:04:52.716Z,1.33
2018-05-04T12:07:21.101Z,1.50
2018-05-04T12:09:50.121Z,1.63
2018-05-04T12:12:18.559Z,1.43
2018-05-04T12:14:47.583Z,1.70
2018-05-04T12:17:15.869Z,2.13
2018-05-04T12:19:44.088Z,1.90
2018-05-04T12:22:12.311Z,1.60
2018-05-04T12:24:40.619Z,1.70
2018-05-04T12:27:08.905Z,2.10
2018-05-04T12:29:37.251Z,2.20
2018-05-04T12:32:05.623Z,1.90
2018-05-04T12:34:33.871Z,2.13
2018-05-04T12:37:02.083Z,1.50
2018-05-04T12:39:30.700Z,1.70
2018-05-04T12:41:59.703Z,1.53
2018-05-04T12:44:28.968Z,1.57
2018-05-04T12:46:57.204Z,1.57
2018-05-04T12:49:26.158Z,1.30
2018-05-04T12:51:55.218Z,1.60
2018-05-04T12:54:23.450Z,1.67
2018-05-04T12:56:52.417Z,1.87
2018-05-04T12:59:21.383Z,2.13
2018-05-04T13:01:49.718Z,1.90
2018-05-04T13:04:18.053Z,1.77
2018-05-04T13:06:46.303Z,1.53
2018-05-04T13:09:14.766Z,1.23
2018-05-04T13:11:43.024Z,1.50
2018-05-04T13:14:11.245Z,1.50
2018-05-04T13:16:39.466Z,1.40
2018-05-04T13:19:07.677Z,1.50
2018-05-04T13:21:35.942Z,1.30
2018-05-04T13:24:04.185Z,1.67
2018-05-04T13:26:33.148Z,1.67
2018-05-04T13:29:02.176Z,1.77
2018-05-04T13:31:30.439Z,1.50
2018-05-04T13:33:58.672Z,1.40
